Time;durP1;ratioP1;P1;durP2;ratioP2;P2;SDS_P1;SDS_P2;PMS_P1;PMS_P2;Temp;Humidity;BMP_temperature;BMP_pressure;BME280_temperature;BME280_humidity;BME280_pressure;Samples;Min_cycle;Max_cycle;Signal;HPM_P1;HPM_P2
2023/07/07 00:00:07;;;;;;;7.10;4.20;;;14.80;99.90;;;;;;4724560;30;20686;-84
2023/07/07 00:02:34;;;;;;;4.37;3.50;;;14.80;99.90;;;;;;4725017;30;20260;-85
2023/07/07 00:05:01;;;;;;;6.00;4.10;;;14.80;99.90;;;;;;4727031;30;20719;-87
2023/07/07 00:07:28;;;;;;;4.33;3.83;;;14.80;99.90;;;;;;4726484;30;20244;-84
2023/07/07 00:09:55;;;;;;;5.60;4.03;;;14.80;99.90;;;;;;4721027;30;20312;-86
2023/07/07 00:12:22;;;;;;;4.40;3.83;;;14.60;99.90;;;;;;4727728;30;20684;-84
2023/07/07 00:14:52;;;;;;;4.83;4.00;;;14.60;99.90;;;;;;4723306;30;21004;-86
2023/07/07 00:17:20;;;;;;;5.33;3.97;;;14.50;99.90;;;;;;4728335;30;20225;-86
2023/07/07 00:19:47;;;;;;;4.50;3.70;;;14.40;99.90;;;;;;4729433;30;20229;-86
2023/07/07 00:22:14;;;;;;;5.30;3.80;;;14.40;99.90;;;;;;4724128;30;20278;-85
2023/07/07 00:24:42;;;;;;;4.67;3.70;;;14.40;99.90;;;;;;4725198;30;20621;-85
2023/07/07 00:27:09;;;;;;;5.07;3.80;;;14.40;99.90;;;;;;4727307;30;20316;-84
2023/07/07 00:29:37;;;;;;;7.63;4.23;;;14.40;99.90;;;;;;4725027;30;20220;-85
2023/07/07 00:32:05;;;;;;;4.53;3.73;;;14.40;99.90;;;;;;4723532;30;20328;-84
2023/07/07 00:34:32;;;;;;;4.03;3.63;;;14.30;99.90;;;;;;4727505;30;20556;-84
2023/07/07 00:36:59;;;;;;;5.87;3.33;;;14.30;99.90;;;;;;4719685;30;20264;-84
2023/07/07 00:39:28;;;;;;;5.87;4.17;;;14.30;99.90;;;;;;4730029;30;20225;-85
2023/07/07 00:41:55;;;;;;;5.27;3.83;;;14.30;99.90;;;;;;4725848;30;20229;-84
2023/07/07 00:45:01;;;;;;;4.63;3.60;;;14.40;99.90;;;;;;4728256;30;20385;-83
2023/07/07 00:47:29;;;;;;;5.77;3.53;;;14.30;99.90;;;;;;4719891;30;20713;-85
2023/07/07 00:49:56;;;;;;;7.27;4.17;;;14.20;99.90;;;;;;4726314;30;20248;-84
2023/07/07 00:52:24;;;;;;;5.00;3.93;;;14.10;99.90;;;;;;4734068;30;20240;-85
2023/07/07 00:54:51;;;;;;;5.83;3.87;;;14.10;99.90;;;;;;4726356;30;20259;-87
2023/07/07 00:57:18;;;;;;;6.37;4.00;;;14.10;99.90;;;;;;4724883;30;20263;-86
2023/07/07 00:59:47;;;;;;;5.63;3.60;;;14.10;99.90;;;;;;4726696;30;20229;-84
2023/07/07 01:02:24;;;;;;;5.13;3.97;;;14.00;99.90;;;;;;4734619;30;20235;-84
2023/07/07 01:04:59;;;;;;;6.27;3.90;;;14.10;99.90;;;;;;4736799;30;20641;-87
2023/07/07 01:07:34;;;;;;;6.73;4.00;;;14.00;99.90;;;;;;4738122;30;20278;-85
2023/07/07 01:10:01;;;;;;;5.40;3.67;;;14.00;99.90;;;;;;4749718;30;20213;-85
2023/07/07 01:12:29;;;;;;;5.17;3.70;;;14.00;99.90;;;;;;4738681;30;20257;-87
2023/07/07 01:14:56;;;;;;;5.27;3.70;;;13.90;99.90;;;;;;4743026;30;20237;-84
2023/07/07 01:17:55;;;;;;;6.20;3.77;;;13.90;99.90;;;;;;4725305;30;20213;-85
2023/07/07 01:20:34;;;;;;;5.80;3.57;;;13.90;99.90;;;;;;4732006;30;20227;-86
2023/07/07 01:23:19;;;;;;;5.97;3.77;;;13.90;99.90;;;;;;4737009;30;20312;-86
2023/07/07 01:26:26;;;;;;;4.63;3.47;;;13.80;99.90;;;;;;4734562;30;20294;-85
2023/07/07 01:29:38;;;;;;;4.67;3.67;;;13.80;99.90;;;;;;4736731;30;20219;-86
2023/07/07 01:32:16;;;;;;;5.90;4.23;;;13.70;99.90;;;;;;4729546;30;20237;-87
2023/07/07 01:34:42;;;;;;;6.13;3.93;;;13.70;99.90;;;;;;4730618;30;20679;-85
2023/07/07 01:37:10;;;;;;;6.93;3.80;;;13.70;99.90;;;;;;4746836;30;20274;-85
2023/07/07 01:39:38;;;;;;;7.70;4.13;;;13.60;99.90;;;;;;4751419;30;20285;-85
2023/07/07 01:42:11;;;;;;;5.30;4.00;;;13.60;99.90;;;;;;4753824;30;20231;-84
2023/07/07 01:44:48;;;;;;;6.37;4.47;;;13.60;99.90;;;;;;4748207;30;20357;-83
2023/07/07 01:47:18;;;;;;;5.53;3.80;;;13.60;99.90;;;;;;4731607;30;20295;-85
2023/07/07 01:49:55;;;;;;;5.13;3.97;;;13.60;99.90;;;;;;4738016;30;20659;-86
2023/07/07 01:52:31;;;;;;;7.40;3.80;;;13.50;99.90;;;;;;4726115;30;20242;-85
2023/07/07 01:55:15;;;;;;;4.40;3.50;;;13.50;99.90;;;;;;4724095;30;20297;-85
2023/07/07 01:57:46;;;;;;;5.63;3.40;;;13.50;99.90;;;;;;4730263;30;20254;-83
2023/07/07 02:00:15;;;;;;;5.97;3.80;;;13.40;99.90;;;;;;4744334;30;20232;-85
2023/07/07 02:02:42;;;;;;;5.77;4.10;;;13.40;99.90;;;;;;4726912;30;20216;-83
2023/07/07 02:05:11;;;;;;;5.13;3.57;;;13.40;99.90;;;;;;4732025;30;20231;-84
2023/07/07 02:07:38;;;;;;;6.23;3.80;;;13.30;99.90;;;;;;4726506;30;20256;-86
2023/07/07 02:10:06;;;;;;;7.47;4.20;;;13.30;99.90;;;;;;4723643;30;20245;-85
2023/07/07 02:12:33;;;;;;;5.53;4.03;;;13.30;99.90;;;;;;4725714;30;20255;-85
2023/07/07 02:15:00;;;;;;;6.30;4.47;;;13.20;99.90;;;;;;4730480;30;20282;-84
2023/07/07 02:17:28;;;;;;;6.13;4.57;;;13.20;99.90;;;;;;4727756;30;20235;-83
2023/07/07 02:19:57;;;;;;;7.50;4.10;;;13.20;99.90;;;;;;4729584;30;20223;-84
2023/07/07 02:22:24;;;;;;;6.67;3.60;;;13.20;99.90;;;;;;4725656;30;20227;-86
2023/07/07 02:24:51;;;;;;;7.10;3.83;;;13.10;99.90;;;;;;4726537;30;20236;-84
2023/07/07 02:27:19;;;;;;;5.87;3.70;;;13.10;99.90;;;;;;4720962;30;20224;-83
2023/07/07 02:29:46;;;;;;;6.67;4.13;;;13.00;99.90;;;;;;4728022;30;20240;-84
2023/07/07 02:32:13;;;;;;;7.43;3.87;;;13.10;99.90;;;;;;4724723;30;20334;-85
2023/07/07 02:34:47;;;;;;;5.60;4.00;;;13.00;99.90;;;;;;4724273;30;20235;-82
2023/07/07 02:37:18;;;;;;;6.17;4.53;;;13.00;99.90;;;;;;4729720;30;20397;-86
2023/07/07 02:39:46;;;;;;;8.83;4.67;;;13.00;99.90;;;;;;4724721;30;20679;-84
2023/07/07 02:42:14;;;;;;;6.17;4.07;;;13.10;99.90;;;;;;4724287;30;20223;-84
2023/07/07 02:44:41;;;;;;;7.00;4.67;;;13.00;99.90;;;;;;4731016;30;20227;-84
2023/07/07 02:47:09;;;;;;;5.80;4.37;;;12.90;99.90;;;;;;4723805;30;20242;-84
2023/07/07 02:49:36;;;;;;;4.97;4.23;;;13.00;99.90;;;;;;4723278;30;20217;-84
2023/07/07 02:52:04;;;;;;;7.00;4.93;;;12.90;99.90;;;;;;4728922;30;20708;-84
2023/07/07 02:54:32;;;;;;;8.77;5.30;;;12.90;99.90;;;;;;4723680;30;20653;-84
2023/07/07 02:57:02;;;;;;;9.67;5.20;;;12.90;99.90;;;;;;4732215;30;20249;-85
2023/07/07 02:59:30;;;;;;;6.93;5.40;;;12.90;99.90;;;;;;4713486;30;20215;-84
2023/07/07 03:01:56;;;;;;;6.50;4.90;;;12.80;99.90;;;;;;4712913;30;20228;-84
2023/07/07 03:04:24;;;;;;;8.20;5.33;;;12.80;99.90;;;;;;4710179;30;20235;-84
2023/07/07 03:06:52;;;;;;;11.43;6.37;;;12.80;99.90;;;;;;4713772;30;20324;-83
2023/07/07 03:09:19;;;;;;;8.77;6.17;;;12.80;99.90;;;;;;4711569;30;20316;-84
2023/07/07 03:11:46;;;;;;;8.07;5.87;;;12.80;99.90;;;;;;4707410;30;20706;-86
2023/07/07 03:14:18;;;;;;;8.17;6.10;;;12.80;99.90;;;;;;4713143;30;20249;-82
2023/07/07 03:16:51;;;;;;;9.33;6.20;;;12.80;99.90;;;;;;4710292;30;20733;-84
2023/07/07 03:19:19;;;;;;;10.63;6.77;;;12.70;99.90;;;;;;4713380;30;20232;-81
2023/07/07 03:21:46;;;;;;;9.47;7.20;;;12.70;99.90;;;;;;4709492;30;20236;-85
2023/07/07 03:24:14;;;;;;;12.70;7.47;;;12.70;99.90;;;;;;4713390;30;20219;-84
2023/07/07 03:26:42;;;;;;;10.80;8.13;;;12.70;99.90;;;;;;4723894;30;21306;-83
2023/07/07 03:29:11;;;;;;;13.83;9.27;;;12.70;99.90;;;;;;4712842;30;20587;-84
2023/07/07 03:31:39;;;;;;;15.83;10.13;;;12.70;99.90;;;;;;4708108;30;20241;-84
2023/07/07 03:34:07;;;;;;;19.37;10.57;;;12.80;99.90;;;;;;4712288;30;20246;-83
2023/07/07 03:36:35;;;;;;;15.27;10.00;;;12.80;99.90;;;;;;4712187;30;20234;-83
2023/07/07 03:39:02;;;;;;;16.37;10.83;;;12.80;99.90;;;;;;4712607;30;20311;-83
2023/07/07 03:41:30;;;;;;;17.87;11.17;;;12.80;99.90;;;;;;4713216;30;20573;-85
2023/07/07 03:43:58;;;;;;;16.90;11.77;;;12.80;99.90;;;;;;4711214;30;20725;-83
2023/07/07 03:46:27;;;;;;;17.50;12.07;;;12.80;99.90;;;;;;4706888;30;20232;-85
2023/07/07 03:48:55;;;;;;;21.20;12.10;;;12.90;99.90;;;;;;4710480;30;20610;-84
2023/07/07 03:51:24;;;;;;;20.37;12.90;;;12.90;99.90;;;;;;4712330;30;20219;-84
2023/07/07 03:53:51;;;;;;;23.03;13.10;;;12.90;99.90;;;;;;4707281;30;20247;-83
2023/07/07 03:56:19;;;;;;;17.30;12.43;;;12.90;99.90;;;;;;4710286;30;20757;-83
2023/07/07 03:58:47;;;;;;;18.00;12.47;;;13.00;99.90;;;;;;4725254;30;20567;-82
2023/07/07 04:01:14;;;;;;;19.23;13.23;;;13.00;99.90;;;;;;4727009;30;20293;-83
2023/07/07 04:03:43;;;;;;;16.63;11.47;;;13.00;99.90;;;;;;4723214;30;20548;-81
2023/07/07 04:06:12;;;;;;;17.97;12.50;;;13.00;99.90;;;;;;4725937;30;20212;-83
2023/07/07 04:08:39;;;;;;;19.27;13.47;;;13.00;99.90;;;;;;4727583;30;20216;-84
2023/07/07 04:11:14;;;;;;;20.10;12.50;;;13.00;99.90;;;;;;4723009;30;20572;-83
2023/07/07 04:13:43;;;;;;;17.43;13.00;;;13.10;99.90;;;;;;4725057;30;20240;-83
2023/07/07 04:16:21;;;;;;;19.93;12.97;;;13.10;99.90;;;;;;4723084;30;20250;-84
2023/07/07 04:18:50;;;;;;;21.40;13.13;;;13.20;99.90;;;;;;4725604;30;20294;-81
2023/07/07 04:21:20;;;;;;;18.10;13.13;;;13.20;99.90;;;;;;4726747;30;20616;-83
2023/07/07 04:23:54;;;;;;;20.77;13.80;;;13.30;99.90;;;;;;4728063;30;20676;-84
2023/07/07 04:26:23;;;;;;;19.27;13.47;;;13.30;99.90;;;;;;4730832;30;20748;-83
2023/07/07 04:28:51;;;;;;;19.73;13.23;;;13.30;99.90;;;;;;4730325;30;20283;-82
2023/07/07 04:31:25;;;;;;;18.40;13.40;;;13.30;99.90;;;;;;4728140;30;20229;-84
2023/07/07 04:33:53;;;;;;;24.13;15.60;;;13.40;99.90;;;;;;4725245;30;20240;-82
2023/07/07 04:36:23;;;;;;;19.90;14.53;;;13.50;99.90;;;;;;4724084;30;20665;-83
2023/07/07 04:38:50;;;;;;;19.00;12.47;;;13.40;99.90;;;;;;4726033;30;20574;-83
2023/07/07 04:41:23;;;;;;;18.37;12.90;;;13.60;99.90;;;;;;4728548;30;20248;-83
2023/07/07 04:43:56;;;;;;;19.43;12.67;;;13.70;99.90;;;;;;4725511;30;20216;-82
2023/07/07 04:46:36;;;;;;;19.03;12.50;;;13.70;99.90;;;;;;4721199;30;20244;-83
2023/07/07 04:49:08;;;;;;;23.47;13.40;;;13.80;99.90;;;;;;4725947;30;20244;-82
2023/07/07 04:51:40;;;;;;;20.40;13.20;;;13.80;99.90;;;;;;4729072;30;20290;-82
2023/07/07 04:54:11;;;;;;;20.20;13.53;;;13.90;99.90;;;;;;4718792;30;20243;-82
2023/07/07 04:56:38;;;;;;;21.07;13.17;;;14.00;99.90;;;;;;4726990;30;20251;-83
2023/07/07 04:59:06;;;;;;;18.27;13.83;;;14.00;99.90;;;;;;4724218;30;20614;-84
2023/07/07 05:01:35;;;;;;;21.53;13.20;;;14.10;99.90;;;;;;4728965;30;20388;-82
2023/07/07 05:04:05;;;;;;;18.37;12.43;;;14.20;99.90;;;;;;4721469;30;20682;-83
2023/07/07 05:06:36;;;;;;;19.43;13.07;;;14.30;99.90;;;;;;4725499;30;20767;-83
2023/07/07 05:09:05;;;;;;;17.13;12.70;;;14.30;99.90;;;;;;4728325;30;20237;-82
2023/07/07 05:11:33;;;;;;;20.80;12.77;;;14.40;99.90;;;;;;4723625;30;20209;-83
2023/07/07 05:14:01;;;;;;;20.43;13.90;;;14.50;99.90;;;;;;4728585;30;20634;-83
2023/07/07 05:16:34;;;;;;;23.27;13.20;;;14.50;99.90;;;;;;4728224;30;20220;-83
2023/07/07 05:19:01;;;;;;;18.50;12.90;;;14.60;99.90;;;;;;4729710;30;20233;-84
2023/07/07 05:21:29;;;;;;;21.20;13.23;;;14.60;99.90;;;;;;4727380;30;20682;-82
2023/07/07 05:23:57;;;;;;;20.47;12.87;;;14.80;99.90;;;;;;4725646;30;20223;-82
2023/07/07 05:26:28;;;;;;;18.60;12.40;;;14.80;99.90;;;;;;4727660;30;20306;-85
2023/07/07 05:29:03;;;;;;;18.47;12.47;;;14.90;99.90;;;;;;4724561;30;20226;-84
2023/07/07 05:31:31;;;;;;;20.83;14.30;;;15.00;99.90;;;;;;4718816;30;20232;-83
2023/07/07 05:33:58;;;;;;;17.67;11.60;;;15.40;99.90;;;;;;4730282;30;20256;-82
2023/07/07 05:36:26;;;;;;;13.48;9.90;;;16.40;99.90;;;;;;4730021;30;20220;-82
2023/07/07 05:38:52;;;;;;;16.42;9.77;;;17.60;99.90;;;;;;4730329;30;20222;-82
2023/07/07 05:41:20;;;;;;;12.52;8.20;;;18.80;99.90;;;;;;4728677;30;20307;-81
2023/07/07 05:43:47;;;;;;;14.95;7.63;;;20.10;99.90;;;;;;4724160;30;20252;-81
2023/07/07 05:46:16;;;;;;;10.30;7.70;;;21.20;99.90;;;;;;4720220;30;20233;-84
2023/07/07 05:48:44;;;;;;;9.20;6.88;;;22.30;99.90;;;;;;4729911;30;20216;-82
2023/07/07 05:51:14;;;;;;;9.27;6.78;;;23.20;99.90;;;;;;4723415;30;20395;-84
2023/07/07 05:53:43;;;;;;;9.98;7.22;;;24.00;99.90;;;;;;4726219;30;20252;-84
2023/07/07 05:56:19;;;;;;;10.65;6.53;;;24.50;99.90;;;;;;4728567;30;20209;-85
2023/07/07 05:58:46;;;;;;;8.55;6.50;;;25.20;99.90;;;;;;4740679;30;20286;-84
2023/07/07 06:01:13;;;;;;;8.27;6.20;;;25.80;99.90;;;;;;4728984;30;20225;-83
2023/07/07 06:03:42;;;;;;;9.23;6.45;;;26.40;99.90;;;;;;4743557;30;20295;-83
2023/07/07 06:06:11;;;;;;;9.10;6.63;;;26.80;99.90;;;;;;4742355;30;20745;-82
2023/07/07 06:08:39;;;;;;;10.25;6.38;;;27.30;99.90;;;;;;4745574;30;20268;-82
2023/07/07 06:11:07;;;;;;;8.40;6.20;;;27.60;99.90;;;;;;4737826;30;20260;-84
2023/07/07 06:13:39;;;;;;;10.35;6.45;;;28.00;99.90;;;;;;4744325;30;20612;-84
2023/07/07 06:16:09;;;;;;;8.85;6.15;;;28.40;99.90;;;;;;4731350;30;20288;-83
2023/07/07 06:18:36;;;;;;;7.07;5.50;;;28.50;99.90;;;;;;4737953;30;20428;-81
2023/07/07 06:21:03;;;;;;;7.07;5.68;;;28.70;99.90;;;;;;4732039;30;20208;-81
2023/07/07 06:23:31;;;;;;;9.55;5.75;;;28.90;99.90;;;;;;4753767;30;20271;-83
2023/07/07 06:25:59;;;;;;;6.70;5.15;;;28.90;99.90;;;;;;4758873;30;20212;-81
2023/07/07 06:28:26;;;;;;;8.70;5.75;;;29.00;99.90;;;;;;4733402;30;20636;-82
2023/07/07 06:30:54;;;;;;;8.13;6.25;;;29.20;99.90;;;;;;4750325;30;20314;-82
2023/07/07 06:33:22;;;;;;;8.65;5.68;;;29.40;99.90;;;;;;4743918;30;20231;-83
2023/07/07 06:35:49;;;;;;;7.40;5.07;;;29.60;99.90;;;;;;4734028;30;20216;-81
2023/07/07 06:38:16;;;;;;;7.35;5.35;;;29.70;99.90;;;;;;4727589;30;20216;-83
2023/07/07 06:40:46;;;;;;;9.95;5.55;;;30.10;99.90;;;;;;4745118;30;20208;-79
2023/07/07 06:43:15;;;;;;;8.43;5.72;;;30.40;99.90;;;;;;4743218;30;20204;-82
2023/07/07 06:45:42;;;;;;;8.75;5.53;;;30.60;99.90;;;;;;4742131;30;20236;-82
2023/07/07 06:48:09;;;;;;;7.70;5.03;;;30.70;99.90;;;;;;4742069;30;20732;-79
2023/07/07 06:50:40;;;;;;;5.65;4.70;;;30.90;99.90;;;;;;4738373;30;20743;-79
2023/07/07 06:53:10;;;;;;;9.00;4.75;;;31.20;99.90;;;;;;4745460;30;20220;-79
2023/07/07 06:55:38;;;;;;;8.15;5.20;;;31.40;99.10;;;;;;4739107;30;20752;-81
2023/07/07 06:58:05;;;;;;;9.38;5.00;;;31.40;98.30;;;;;;4727483;30;20228;-80
2023/07/07 07:00:32;;;;;;;6.80;4.80;;;31.70;97.80;;;;;;4723874;30;20229;-80
2023/07/07 07:02:59;;;;;;;6.60;4.80;;;31.70;97.20;;;;;;4722424;30;20556;-81
2023/07/07 07:05:25;;;;;;;8.02;5.00;;;31.70;96.50;;;;;;4726523;30;20259;-80
2023/07/07 07:07:52;;;;;;;6.93;4.60;;;31.60;95.80;;;;;;4721648;30;20205;-81
2023/07/07 07:10:19;;;;;;;6.20;4.55;;;31.40;95.50;;;;;;4721551;30;20225;-81
2023/07/07 07:12:48;;;;;;;6.95;4.40;;;31.40;95.40;;;;;;4722751;30;20229;-81
2023/07/07 07:15:15;;;;;;;8.48;4.88;;;31.40;95.30;;;;;;4716430;30;20255;-81
2023/07/07 07:17:44;;;;;;;7.10;4.15;;;31.30;94.80;;;;;;4722932;30;20221;-80
2023/07/07 07:20:11;;;;;;;6.85;4.53;;;31.30;94.80;;;;;;4722794;30;20205;-82
2023/07/07 07:22:38;;;;;;;6.93;3.55;;;31.30;94.50;;;;;;4724950;30;20223;-81
2023/07/07 07:25:08;;;;;;;6.20;3.60;;;31.30;94.40;;;;;;4724942;30;20568;-84
2023/07/07 07:27:37;;;;;;;7.85;3.85;;;31.30;94.00;;;;;;4725963;30;20209;-83
2023/07/07 07:30:07;;;;;;;6.13;3.85;;;31.40;93.80;;;;;;4720321;30;20773;-84
2023/07/07 07:32:34;;;;;;;6.50;3.78;;;31.50;93.50;;;;;;4729037;30;20216;-83
2023/07/07 07:35:01;;;;;;;6.10;4.10;;;31.70;93.30;;;;;;4727615;30;20235;-84
2023/07/07 07:37:28;;;;;;;5.60;3.85;;;31.70;93.20;;;;;;4734732;30;20209;-83
2023/07/07 07:39:55;;;;;;;5.63;4.18;;;31.90;92.80;;;;;;4735145;30;20265;-83
2023/07/07 07:42:23;;;;;;;6.45;3.83;;;32.10;92.30;;;;;;4729552;30;20209;-84
2023/07/07 07:44:50;;;;;;;8.07;3.75;;;32.10;92.20;;;;;;4731134;30;20232;-84
2023/07/07 07:47:19;;;;;;;7.07;3.67;;;32.10;91.90;;;;;;4727191;30;20247;-85
2023/07/07 07:49:47;;;;;;;6.20;3.40;;;32.10;91.10;;;;;;4724314;30;20255;-85
2023/07/07 07:52:16;;;;;;;8.85;3.80;;;32.10;90.90;;;;;;4726752;30;20220;-84
2023/07/07 07:54:43;;;;;;;5.60;3.33;;;32.20;90.70;;;;;;4728748;30;20590;-83
2023/07/07 07:57:11;;;;;;;5.15;3.17;;;32.30;90.50;;;;;;4728953;30;20687;-83
2023/07/07 07:59:38;;;;;;;5.47;2.67;;;32.30;90.20;;;;;;4733761;30;20226;-80
2023/07/07 08:02:08;;;;;;;6.28;2.35;;;32.40;90.00;;;;;;4746389;30;20302;-81
2023/07/07 08:04:35;;;;;;;4.60;2.90;;;32.40;89.80;;;;;;4745629;30;20212;-80
2023/07/07 08:07:02;;;;;;;6.90;2.95;;;32.40;90.00;;;;;;4751412;30;20218;-82
2023/07/07 08:09:29;;;;;;;5.97;2.70;;;32.50;89.90;;;;;;4748099;30;20211;-82
2023/07/07 08:11:58;;;;;;;4.13;2.80;;;32.60;88.90;;;;;;4751316;30;20211;-82
2023/07/07 08:14:30;;;;;;;4.32;2.50;;;32.70;88.30;;;;;;4731854;30;20243;-83
2023/07/07 08:17:10;;;;;;;4.32;2.80;;;32.70;88.20;;;;;;4739127;30;20207;-83
2023/07/07 08:19:39;;;;;;;3.38;2.33;;;32.80;87.20;;;;;;4751955;30;20211;-83
2023/07/07 08:22:10;;;;;;;3.88;3.00;;;32.90;88.20;;;;;;4772693;29;20201;-83
2023/07/07 08:24:40;;;;;;;4.47;2.67;;;32.90;87.10;;;;;;4754031;30;20207;-82
2023/07/07 08:27:08;;;;;;;4.25;2.25;;;32.70;87.00;;;;;;4756512;30;20207;-83
2023/07/07 08:29:38;;;;;;;5.57;2.20;;;32.60;87.20;;;;;;4755691;30;20204;-79
2023/07/07 08:32:06;;;;;;;4.25;1.95;;;32.50;86.20;;;;;;4753303;30;20196;-81
2023/07/07 08:34:33;;;;;;;3.95;2.35;;;32.40;86.00;;;;;;4749761;30;20228;-82
2023/07/07 08:37:15;;;;;;;4.85;2.90;;;32.40;86.10;;;;;;4750119;30;20204;-79
2023/07/07 08:39:42;;;;;;;4.03;2.42;;;32.30;85.80;;;;;;4752094;30;20236;-82
2023/07/07 08:42:22;;;;;;;2.90;2.08;;;32.40;85.10;;;;;;4732087;30;20230;-80
2023/07/07 08:44:50;;;;;;;3.35;2.25;;;32.50;85.20;;;;;;4743952;30;20227;-81
2023/07/07 08:47:37;;;;;;;3.75;2.20;;;32.40;84.80;;;;;;4729231;30;20212;-80
2023/07/07 08:50:27;;;;;;;3.95;2.10;;;32.30;82.70;;;;;;4732647;30;20212;-81
2023/07/07 08:53:11;;;;;;;3.03;1.92;;;32.30;84.70;;;;;;4747615;30;20209;-82
2023/07/07 08:55:39;;;;;;;3.88;1.85;;;32.30;83.70;;;;;;4745071;30;20274;-80
2023/07/07 08:58:39;;;;;;;3.63;1.88;;;32.10;83.40;;;;;;4743635;30;20664;-82
2023/07/07 09:01:14;;;;;;;4.45;2.00;;;32.10;82.40;;;;;;4740755;30;20232;-81
2023/07/07 09:03:53;;;;;;;5.70;2.28;;;31.80;82.30;;;;;;4750330;30;20211;-83
2023/07/07 09:06:43;;;;;;;2.83;1.80;;;31.60;83.20;;;;;;4746196;30;20666;-84
2023/07/07 09:09:31;;;;;;;3.30;1.80;;;31.50;82.40;;;;;;4740558;30;20212;-81
2023/07/07 09:12:12;;;;;;;3.83;2.10;;;31.40;81.80;;;;;;4722961;30;20216;-82
2023/07/07 09:14:40;;;;;;;5.40;1.75;;;31.30;82.20;;;;;;4736619;30;20263;-82
2023/07/07 09:17:18;;;;;;;3.35;2.20;;;31.30;81.90;;;;;;4741632;30;20221;-83
2023/07/07 09:19:47;;;;;;;4.75;2.13;;;31.30;81.20;;;;;;4741599;30;20213;-81
2023/07/07 09:22:20;;;;;;;3.97;2.05;;;31.20;80.90;;;;;;4749445;30;20212;-81
2023/07/07 09:25:05;;;;;;;3.42;1.95;;;31.30;82.20;;;;;;4743090;30;20301;-83
2023/07/07 09:27:39;;;;;;;3.38;1.90;;;31.50;82.20;;;;;;4729107;30;20243;-84
2023/07/07 09:30:29;;;;;;;5.05;2.30;;;31.40;81.80;;;;;;4743463;30;20243;-83
2023/07/07 09:32:56;;;;;;;3.40;1.80;;;31.50;81.40;;;;;;4745931;30;20212;-82
2023/07/07 09:35:27;;;;;;;2.60;1.50;;;31.20;81.30;;;;;;4725956;30;20239;-81
2023/07/07 09:38:16;;;;;;;4.50;2.05;;;31.20;82.10;;;;;;4743608;30;20579;-83
2023/07/07 09:40:53;;;;;;;2.97;1.60;;;31.20;80.30;;;;;;4744654;30;20239;-81
2023/07/07 09:43:42;;;;;;;2.63;1.55;;;31.10;80.60;;;;;;4723550;30;20219;-80
2023/07/07 09:46:49;;;;;;;3.95;2.08;;;31.00;78.70;;;;;;4736443;30;20251;-81
2023/07/07 09:49:40;;;;;;;3.95;2.08;;;30.80;80.10;;;;;;4734175;30;20272;-81
2023/07/07 09:52:14;;;;;;;3.70;1.80;;;30.60;78.80;;;;;;4731650;30;20196;-81
2023/07/07 09:54:42;;;;;;;2.30;1.80;;;30.50;79.40;;;;;;4730741;30;20315;-81
2023/07/07 09:57:28;;;;;;;3.40;2.00;;;30.30;79.30;;;;;;4728421;30;20597;-81
2023/07/07 09:59:57;;;;;;;3.30;2.00;;;30.20;79.10;;;;;;4742249;30;20350;-83
2023/07/07 10:02:25;;;;;;;5.07;1.90;;;30.20;79.70;;;;;;4742969;30;20278;-85
2023/07/07 10:05:04;;;;;;;3.38;1.67;;;30.30;80.40;;;;;;4729517;30;20220;-84
2023/07/07 10:07:36;;;;;;;4.22;2.08;;;30.40;80.00;;;;;;4743217;30;20290;-83
2023/07/07 10:10:05;;;;;;;2.53;1.85;;;30.50;78.90;;;;;;4731157;30;20216;-83
2023/07/07 10:12:32;;;;;;;2.20;1.60;;;30.50;79.10;;;;;;4729317;30;20204;-83
2023/07/07 10:15:18;;;;;;;2.95;1.80;;;30.50;78.70;;;;;;4738300;30;20252;-83
2023/07/07 10:18:02;;;;;;;3.47;2.00;;;30.50;77.30;;;;;;4740954;30;20289;-83
2023/07/07 10:20:30;;;;;;;1.98;1.50;;;30.50;77.20;;;;;;4726991;30;20486;-81
2023/07/07 10:22:57;;;;;;;13.80;3.05;;;30.40;77.70;;;;;;4730052;30;20212;-81
2023/07/07 10:25:27;;;;;;;4.93;2.10;;;30.30;75.70;;;;;;4726004;30;20216;-81
2023/07/07 10:27:55;;;;;;;2.45;1.70;;;30.30;76.20;;;;;;4743820;30;20197;-82
2023/07/07 10:30:22;;;;;;;3.45;1.90;;;30.30;76.10;;;;;;4745089;30;20270;-83
2023/07/07 10:32:51;;;;;;;2.97;1.80;;;30.40;74.90;;;;;;4726447;30;20216;-83
2023/07/07 10:35:24;;;;;;;2.35;1.70;;;30.50;74.50;;;;;;4746871;30;20231;-84
2023/07/07 10:37:53;;;;;;;3.00;1.77;;;30.60;74.50;;;;;;4723632;30;20677;-82
2023/07/07 10:40:24;;;;;;;2.75;1.80;;;30.40;74.70;;;;;;4741525;30;20224;-85
2023/07/07 10:42:56;;;;;;;2.95;1.77;;;30.50;73.90;;;;;;4744525;30;20213;-85
2023/07/07 10:45:24;;;;;;;2.85;1.92;;;30.50;71.50;;;;;;4741559;30;20778;-85
2023/07/07 10:47:52;;;;;;;2.80;1.63;;;30.40;71.00;;;;;;4728936;30;20625;-86
2023/07/07 10:50:21;;;;;;;2.95;1.90;;;30.30;71.40;;;;;;4731614;30;20224;-85
2023/07/07 10:52:49;;;;;;;3.30;1.80;;;30.20;72.00;;;;;;4730741;30;20273;-82
2023/07/07 10:55:32;;;;;;;3.00;1.98;;;30.10;73.00;;;;;;4746815;30;20251;-84
2023/07/07 10:58:32;;;;;;;4.57;1.90;;;30.10;73.20;;;;;;4745240;30;20318;-87
2023/07/07 11:01:09;;;;;;;3.78;2.33;;;29.90;73.90;;;;;;4713478;30;20251;-86
2023/07/07 11:04:02;;;;;;;3.85;2.05;;;29.80;73.50;;;;;;4728039;30;20590;-83
2023/07/07 11:06:35;;;;;;;3.47;2.05;;;29.70;73.50;;;;;;4740551;30;20254;-88
2023/07/07 11:09:22;;;;;;;4.70;1.88;;;29.60;73.80;;;;;;4731545;30;20571;-84
2023/07/07 11:12:17;;;;;;;3.85;1.85;;;29.60;73.30;;;;;;4732863;30;20291;-83
2023/07/07 11:14:56;;;;;;;2.53;1.70;;;29.60;73.10;;;;;;4744412;30;20244;-85
2023/07/07 11:17:49;;;;;;;3.35;2.38;;;29.60;74.10;;;;;;4727841;30;20629;-84
2023/07/07 11:20:43;;;;;;;2.53;1.95;;;29.40;74.40;;;;;;4725850;30;20639;-85
2023/07/07 11:23:38;;;;;;;2.60;1.63;;;29.30;75.60;;;;;;4725273;30;20678;-85
2023/07/07 11:26:24;;;;;;;3.22;2.00;;;29.40;74.00;;;;;;4730426;30;20290;-84
2023/07/07 11:29:19;;;;;;;3.75;1.80;;;29.40;73.30;;;;;;4733903;30;20248;-85
2023/07/07 11:31:58;;;;;;;3.13;1.60;;;29.50;73.90;;;;;;4744397;30;20224;-85
2023/07/07 11:34:45;;;;;;;2.83;1.90;;;29.60;73.70;;;;;;4756182;30;20240;-87
2023/07/07 11:37:36;;;;;;;3.80;1.92;;;29.70;73.30;;;;;;4742135;30;20228;-84
2023/07/07 11:40:42;;;;;;;3.03;1.83;;;29.40;73.80;;;;;;4737210;30;20623;-84
2023/07/07 11:43:28;;;;;;;3.58;2.10;;;29.90;74.50;;;;;;4732049;30;20255;-84
2023/07/07 11:46:15;;;;;;;3.30;2.03;;;29.90;75.10;;;;;;4748802;30;20232;-82
2023/07/07 11:49:15;;;;;;;4.90;2.22;;;29.90;74.80;;;;;;4753285;30;20204;-81
2023/07/07 11:51:51;;;;;;;3.22;2.05;;;29.90;73.50;;;;;;4715994;30;20205;-84
2023/07/07 11:54:35;;;;;;;2.58;2.00;;;29.90;74.10;;;;;;4724146;30;20609;-82
2023/07/07 11:57:19;;;;;;;4.25;1.83;;;30.00;75.10;;;;;;4730924;30;20622;-84
2023/07/07 11:59:59;;;;;;;3.58;2.03;;;30.10;75.30;;;;;;4732354;30;20220;-84
2023/07/07 12:02:54;;;;;;;3.40;1.90;;;30.10;75.30;;;;;;4733230;30;20234;-84
2023/07/07 12:05:33;;;;;;;3.00;1.92;;;30.00;75.80;;;;;;4733033;30;20231;-86
2023/07/07 12:08:11;;;;;;;2.83;1.85;;;29.90;75.90;;;;;;4730240;30;20563;-84
2023/07/07 12:10:46;;;;;;;4.47;2.58;;;29.90;76.10;;;;;;4730438;30;20208;-84
2023/07/07 12:13:22;;;;;;;4.57;1.90;;;30.00;76.30;;;;;;4731417;30;20294;-84
2023/07/07 12:15:58;;;;;;;2.75;1.80;;;29.90;76.20;;;;;;4728621;30;20252;-82
2023/07/07 12:18:38;;;;;;;3.00;2.08;;;29.90;76.60;;;;;;4740471;30;20241;-82
2023/07/07 12:21:28;;;;;;;2.22;1.73;;;29.90;76.80;;;;;;4732692;30;20273;-83
2023/07/07 12:24:11;;;;;;;2.97;1.77;;;29.90;76.30;;;;;;4726596;30;20223;-85
2023/07/07 12:26:45;;;;;;;3.03;1.80;;;30.10;76.80;;;;;;4742394;30;20226;-86
2023/07/07 12:29:15;;;;;;;2.85;1.67;;;30.10;76.00;;;;;;4738670;30;20220;-85
2023/07/07 12:31:43;;;;;;;2.42;1.80;;;30.20;75.30;;;;;;4730267;30;20225;-80
2023/07/07 12:34:45;;;;;;;4.75;2.67;;;30.20;74.90;;;;;;4737564;30;20240;-83
2023/07/07 12:37:22;;;;;;;3.03;2.10;;;30.20;75.70;;;;;;4731405;30;20212;-85
2023/07/07 12:39:54;;;;;;;3.75;2.10;;;30.30;75.10;;;;;;4735801;30;20230;-81
2023/07/07 12:42:23;;;;;;;3.72;1.90;;;30.20;74.60;;;;;;4730860;30;20646;-82
2023/07/07 12:44:51;;;;;;;2.47;1.77;;;30.30;74.30;;;;;;4730382;30;20219;-82
2023/07/07 12:47:30;;;;;;;4.03;2.00;;;30.30;74.60;;;;;;4746446;30;20212;-82
2023/07/07 12:50:01;;;;;;;2.60;1.58;;;30.40;75.50;;;;;;4733302;30;20246;-86
2023/07/07 12:52:38;;;;;;;2.95;1.48;;;30.50;74.10;;;;;;4724371;30;20689;-83
2023/07/07 12:55:21;;;;;;;2.83;2.10;;;30.40;72.70;;;;;;4731214;30;20227;-85
2023/07/07 12:58:16;;;;;;;2.58;1.75;;;30.50;72.50;;;;;;4746197;30;20246;-82
2023/07/07 13:00:44;;;;;;;2.95;1.88;;;30.50;72.40;;;;;;4745820;30;20289;-83
2023/07/07 13:03:18;;;;;;;3.00;1.83;;;30.40;72.50;;;;;;4731587;30;20208;-83
2023/07/07 13:05:48;;;;;;;3.33;1.67;;;30.50;73.00;;;;;;4733366;30;20218;-85
2023/07/07 13:08:37;;;;;;;2.80;1.95;;;30.60;73.60;;;;;;4732551;30;20240;-84
2023/07/07 13:11:15;;;;;;;2.95;1.98;;;30.70;73.30;;;;;;4739451;30;20231;-82